Time;durP1;ratioP1;P1;durP2;ratioP2;P2;SDS_P1;SDS_P2;PMS_P1;PMS_P2;Temp;Humidity;BMP_temperature;BMP_pressure;BME280_temperature;BME280_humidity;BME280_pressure;Samples;Min_cycle;Max_cycle;Signal;HPM_P1;HPM_P2
2021/08/10 00:01:00;;;;;;;5.60;4.70;;;;;;;18.39;75.29;97475.85;126973;1095;62569;-50
2021/08/10 00:03:27;;;;;;;4.93;4.43;;;;;;;18.38;75.24;97470.73;126924;1095;62604;-49
2021/08/10 00:05:54;;;;;;;6.23;5.03;;;;;;;18.37;75.18;97469.08;127054;1093;63038;-49
2021/08/10 00:08:21;;;;;;;5.65;4.90;;;;;;;18.37;75.17;97463.78;126942;1093;62664;-48
2021/08/10 00:10:48;;;;;;;5.23;4.60;;;;;;;18.36;75.19;97465.60;126997;1095;62620;-54
2021/08/10 00:13:17;;;;;;;4.90;4.40;;;;;;;18.34;75.33;97456.98;127006;1095;62662;-54
2021/08/10 00:15:44;;;;;;;5.00;4.53;;;;;;;18.33;75.24;97461.45;126955;1093;62611;-50
2021/08/10 00:18:11;;;;;;;4.77;4.27;;;;;;;18.31;75.31;97460.79;127023;1094;62587;-52
2021/08/10 00:20:38;;;;;;;6.63;5.00;;;;;;;18.32;75.20;97470.38;126918;1095;62712;-48
2021/08/10 00:23:05;;;;;;;5.77;5.17;;;;;;;18.29;75.21;97467.21;126912;1093;63003;-52
2021/08/10 00:25:32;;;;;;;5.30;4.80;;;;;;;18.27;75.34;97462.09;126926;1095;62633;-51
2021/08/10 00:27:59;;;;;;;6.27;4.73;;;;;;;18.26;75.29;97460.44;127088;1095;62596;-49
2021/08/10 00:30:27;;;;;;;5.67;5.13;;;;;;;18.24;75.10;97459.75;127134;1095;62589;-51
2021/08/10 00:32:54;;;;;;;5.13;4.63;;;;;;;18.22;75.07;97459.09;127090;1095;62607;-47
2021/08/10 00:35:20;;;;;;;4.97;4.47;;;;;;;18.20;75.01;97463.70;127082;1095;62719;-53
2021/08/10 00:37:47;;;;;;;6.33;5.07;;;;;;;18.18;75.22;97463.04;127023;1093;62589;-51
2021/08/10 00:40:14;;;;;;;7.07;4.70;;;;;;;18.15;75.08;97463.34;126889;1095;62601;-50
2021/08/10 00:42:42;;;;;;;5.07;4.57;;;;;;;18.14;75.16;97471.45;126635;1095;62999;-50
2021/08/10 00:45:09;;;;;;;4.90;4.47;;;;;;;18.12;75.10;97468.11;126927;1095;62712;-51
2021/08/10 00:47:36;;;;;;;4.97;4.47;;;;;;;18.10;75.16;97468.28;127021;1095;62715;-51
2021/08/10 00:50:05;;;;;;;5.80;4.40;;;;;;;18.07;75.17;97463.30;126994;1095;62609;-51
2021/08/10 00:52:32;;;;;;;4.60;4.13;;;;;;;18.07;75.07;97468.58;127008;1095;63009;-50
2021/08/10 00:55:01;;;;;;;5.23;4.73;;;;;;;18.04;75.17;97467.09;126869;1095;62628;-51
2021/08/10 00:57:28;;;;;;;5.63;4.77;;;;;;;18.02;75.23;97461.13;126908;1095;62672;-50
2021/08/10 00:59:55;;;;;;;5.17;4.67;;;;;;;18.02;75.13;97470.88;126933;1093;62559;-51
2021/08/10 01:02:22;;;;;;;5.43;4.60;;;;;;;17.99;75.09;97471.20;127024;1093;62620;-55
2021/08/10 01:04:49;;;;;;;5.30;4.80;;;;;;;17.98;75.03;97473.02;127154;1095;62607;-51
2021/08/10 01:07:28;;;;;;;5.70;5.13;;;;;;;17.97;75.15;97470.52;127088;1093;62607;-49
2021/08/10 01:10:16;;;;;;;4.98;4.48;;;;;;;17.94;75.05;97470.84;127063;1095;62609;-50
2021/08/10 01:12:50;;;;;;;5.65;4.70;;;;;;;17.92;75.22;97470.16;127081;1095;62600;-52
2021/08/10 01:15:19;;;;;;;6.10;4.90;;;;;;;17.91;74.94;97471.98;127031;1095;62663;-55
2021/08/10 01:18:01;;;;;;;4.57;4.17;;;;;;;17.90;75.18;97469.50;127105;1093;62703;-49
2021/08/10 01:20:50;;;;;;;4.67;4.27;;;;;;;17.87;75.09;97469.80;127028;1095;62619;-52
2021/08/10 01:23:18;;;;;;;5.13;4.47;;;;;;;17.84;75.14;97465.67;126943;1095;62680;-51
2021/08/10 01:26:00;;;;;;;5.03;4.60;;;;;;;17.83;75.10;97465.80;126958;1095;62674;-52
2021/08/10 01:28:27;;;;;;;5.77;4.90;;;;;;;17.80;75.15;97473.08;127050;1095;62556;-54
2021/08/10 01:31:05;;;;;;;5.07;4.57;;;;;;;17.79;75.03;97466.13;127077;1095;62616;-52
2021/08/10 01:33:34;;;;;;;5.27;4.77;;;;;;;17.77;75.08;97464.61;126995;1095;62536;-50
2021/08/10 01:36:01;;;;;;;;;;;;;;;17.77;75.53;97472.55;127141;1093;62610;-51
2021/08/10 01:38:28;;;;;;;4.73;4.23;;;;;;;17.74;75.21;97470.20;127026;1095;62604;-51
2021/08/10 01:40:55;;;;;;;5.53;5.03;;;;;;;17.73;75.04;97469.38;127088;1095;62582;-52
2021/08/10 01:43:23;;;;;;;5.40;4.53;;;;;;;17.72;74.82;97461.58;126956;1095;62630;-55
2021/08/10 01:45:50;;;;;;;5.23;4.73;;;;;;;17.71;74.87;97468.69;127040;1095;62668;-55
2021/08/10 01:48:17;;;;;;;5.27;4.77;;;;;;;17.69;74.86;97467.99;126988;1095;62706;-50
2021/08/10 01:50:45;;;;;;;5.63;4.93;;;;;;;17.67;74.82;97464.69;127038;1094;62607;-50
2021/08/10 01:53:13;;;;;;;5.50;5.00;;;;;;;17.66;74.85;97459.56;127075;1095;62650;-53
2021/08/10 01:55:40;;;;;;;4.93;4.37;;;;;;;17.65;74.97;97465.81;127095;1095;63000;-52
2021/08/10 01:58:07;;;;;;;4.97;4.23;;;;;;;17.63;75.08;97455.41;126954;1095;62654;-54
2021/08/10 02:00:34;;;;;;;5.20;4.70;;;;;;;17.63;74.97;97449.29;126999;1095;62701;-51
2021/08/10 02:03:04;;;;;;;5.35;4.85;;;;;;;17.62;75.04;97453.75;126944;1095;62556;-49
2021/08/10 02:05:31;;;;;;;5.20;4.70;;;;;;;17.61;75.04;97451.24;126915;1094;63198;-52
2021/08/10 02:07:58;;;;;;;5.23;4.57;;;;;;;17.60;74.96;97450.41;126987;1093;63018;-51
2021/08/10 02:10:26;;;;;;;4.80;4.30;;;;;;;17.59;74.90;97454.05;127570;1095;62556;-53
2021/08/10 02:12:53;;;;;;;4.63;4.13;;;;;;;17.59;74.90;97451.41;126957;1095;62603;-51
2021/08/10 02:15:20;;;;;;;5.07;4.47;;;;;;;17.59;74.87;97458.51;127077;1093;62610;-52
2021/08/10 02:17:49;;;;;;;4.80;4.30;;;;;;;17.58;74.99;97449.75;126998;1095;62609;-51
2021/08/10 02:20:16;;;;;;;5.10;4.60;;;;;;;17.57;75.08;97453.39;127109;1095;63045;-50
2021/08/10 02:22:43;;;;;;;5.30;4.80;;;;;;;17.56;74.85;97457.84;127023;1095;62587;-49
2021/08/10 02:25:11;;;;;;;5.20;4.70;;;;;;;17.55;74.86;97457.98;127101;1095;62569;-56
2021/08/10 02:28:04;;;;;;;4.67;4.10;;;;;;;17.54;74.97;97454.52;127025;1095;62744;-52
2021/08/10 02:30:34;;;;;;;5.30;4.77;;;;;;;17.52;74.93;97458.31;127112;1095;62556;-50
2021/08/10 02:33:07;;;;;;;5.17;4.67;;;;;;;17.49;74.97;97455.96;127032;1095;62830;-50
2021/08/10 02:35:34;;;;;;;5.13;4.60;;;;;;;17.48;74.93;97459.59;126908;1095;62609;-51
2021/08/10 02:38:07;;;;;;;5.47;4.43;;;;;;;17.46;74.90;97459.73;126886;1095;62718;-52
2021/08/10 02:40:34;;;;;;;4.77;4.20;;;;;;;17.46;74.82;97458.91;126899;1093;62783;-52
2021/08/10 02:43:01;;;;;;;6.40;4.77;;;;;;;17.43;75.03;97449.48;126889;1095;62649;-51
2021/08/10 02:45:28;;;;;;;4.77;4.27;;;;;;;17.42;74.83;97454.91;126615;1095;62575;-50
2021/08/10 02:47:56;;;;;;;4.90;4.40;;;;;;;17.40;74.95;97455.06;127073;1095;62613;-52
2021/08/10 02:50:25;;;;;;;4.93;4.43;;;;;;;17.38;74.86;97458.83;127128;1095;62698;-52
2021/08/10 02:52:52;;;;;;;4.40;4.00;;;;;;;17.36;74.82;97460.81;127165;1095;62725;-49
2021/08/10 02:55:21;;;;;;;5.40;4.90;;;;;;;17.34;74.87;97457.50;126925;1095;62666;-50
2021/08/10 02:57:59;;;;;;;5.40;4.90;;;;;;;17.33;75.00;97463.74;126903;1093;62601;-50
2021/08/10 03:00:27;;;;;;;5.03;4.40;;;;;;;17.30;74.94;97459.61;127011;1093;62572;-50
2021/08/10 03:03:00;;;;;;;4.53;4.13;;;;;;;17.27;74.83;97463.38;126933;1095;62658;-52
2021/08/10 03:05:29;;;;;;;5.03;4.37;;;;;;;17.27;74.87;97468.66;126858;1093;62760;-51
2021/08/10 03:07:57;;;;;;;5.83;4.50;;;;;;;17.24;74.87;97463.70;127044;1095;62604;-53
2021/08/10 03:10:25;;;;;;;5.27;4.80;;;;;;;17.24;75.02;97468.98;127114;1095;62628;-50
2021/08/10 03:12:52;;;;;;;5.23;4.70;;;;;;;17.22;74.79;97464.82;126937;1093;62556;-53
2021/08/10 03:15:24;;;;;;;5.40;4.17;;;;;;;17.21;74.81;97469.27;126553;1095;63146;-49
2021/08/10 03:17:51;;;;;;;4.77;4.27;;;;;;;17.19;74.96;97465.94;126953;1093;62999;-51
2021/08/10 03:20:19;;;;;;;4.53;4.10;;;;;;;17.19;74.79;97476.50;127004;1093;62603;-50
2021/08/10 03:22:46;;;;;;;4.90;4.37;;;;;;;17.17;74.82;97473.20;126871;1093;62594;-55
2021/08/10 03:25:15;;;;;;;4.83;4.33;;;;;;;17.17;74.73;97477.66;126834;1095;63092;-53
2021/08/10 03:27:42;;;;;;;5.10;4.50;;;;;;;17.16;74.70;97482.11;127118;1095;62703;-49
2021/08/10 03:30:10;;;;;;;5.27;4.37;;;;;;;17.16;74.74;97481.28;127006;1095;62703;-55
2021/08/10 03:32:37;;;;;;;4.73;4.17;;;;;;;17.15;74.82;97476.98;127005;1095;62641;-55
2021/08/10 03:35:04;;;;;;;4.87;4.37;;;;;;;17.15;74.72;97482.27;126900;1095;62659;-54
2021/08/10 03:37:31;;;;;;;5.23;4.67;;;;;;;17.15;74.79;97475.17;126991;1095;62607;-51
2021/08/10 03:39:59;;;;;;;4.43;4.03;;;;;;;17.15;74.77;97488.38;126990;1093;62844;-50
2021/08/10 03:42:26;;;;;;;5.30;4.37;;;;;;;17.16;74.92;97487.39;127129;1095;62751;-54
2021/08/10 03:44:54;;;;;;;5.90;5.30;;;;;;;17.16;74.92;97487.39;127071;1095;62892;-51
2021/08/10 03:47:21;;;;;;;8.37;6.17;;;;;;;17.21;75.05;97481.66;126942;1095;62601;-55
2021/08/10 03:49:49;;;;;;;5.83;5.33;;;;;;;17.23;74.65;97492.89;127084;1095;62620;-61
2021/08/10 03:52:16;;;;;;;6.33;5.70;;;;;;;17.25;74.61;97496.23;127162;1093;62604;-54
2021/08/10 03:54:43;;;;;;;5.97;5.37;;;;;;;17.24;74.75;97500.69;127108;1095;62793;-60
2021/08/10 03:57:17;;;;;;;7.60;5.87;;;;;;;17.25;74.62;97502.34;127100;1095;63064;-50
2021/08/10 03:59:54;;;;;;;6.13;5.53;;;;;;;17.26;74.50;97503.99;127130;1095;62604;-61
2021/08/10 04:02:21;;;;;;;6.30;5.70;;;;;;;17.26;74.57;97511.91;126930;1095;62601;-60
2021/08/10 04:04:52;;;;;;;5.93;5.33;;;;;;;17.26;74.54;97509.27;127011;1093;62616;-60
2021/08/10 04:07:20;;;;;;;6.90;5.50;;;;;;;17.27;74.58;97507.45;127115;1094;62552;-54
2021/08/10 04:09:48;;;;;;;6.23;5.30;;;;;;;17.28;74.39;97511.75;127056;1095;62601;-49
2021/08/10 04:12:15;;;;;;;6.33;5.73;;;;;;;17.30;74.51;97518.56;126913;1093;62591;-60
2021/08/10 04:14:42;;;;;;;6.20;5.60;;;;;;;17.31;74.57;97512.29;126659;1095;62665;-50
2021/08/10 04:17:09;;;;;;;6.53;5.93;;;;;;;17.36;74.54;97514.48;126938;1093;62607;-54
2021/08/10 04:19:45;;;;;;;6.70;5.97;;;;;;;17.38;74.33;97512.53;126917;1093;62748;-51
2021/08/10 04:22:13;;;;;;;6.87;5.83;;;;;;;17.42;74.21;97508.58;126897;1095;62623;-50
2021/08/10 04:24:40;;;;;;;6.97;5.87;;;;;;;17.46;74.26;97509.11;126899;1093;63009;-57
2021/08/10 04:27:07;;;;;;;6.00;5.17;;;;;;;17.52;74.75;97511.16;127073;1095;62604;-54
2021/08/10 04:29:34;;;;;;;5.73;4.93;;;;;;;17.62;74.90;97508.43;126949;1095;62933;-51
2021/08/10 04:32:01;;;;;;;5.00;4.50;;;;;;;17.70;74.72;97506.69;127127;1095;62751;-60
2021/08/10 04:34:28;;;;;;;5.27;4.60;;;;;;;17.79;74.62;97510.22;127015;1095;62604;-54
2021/08/10 04:36:55;;;;;;;6.43;5.83;;;;;;;17.87;74.19;97507.64;127111;1094;62980;-60
2021/08/10 04:39:26;;;;;;;5.70;5.10;;;;;;;17.94;73.84;97510.52;126919;1095;62605;-54
2021/08/10 04:41:53;;;;;;;6.20;5.60;;;;;;;18.02;73.87;97515.84;126929;1095;63009;-61
2021/08/10 04:44:21;;;;;;;6.13;5.53;;;;;;;18.10;73.75;97518.54;126917;1095;62696;-49
2021/08/10 04:46:49;;;;;;;6.87;6.17;;;;;;;18.15;73.46;97516.25;126913;1095;62629;-59
2021/08/10 04:49:16;;;;;;;7.00;6.17;;;;;;;18.21;73.34;97515.65;126990;1093;62623;-60
2021/08/10 04:51:43;;;;;;;7.10;6.40;;;;;;;18.28;73.24;97511.38;126889;1093;62604;-48
2021/08/10 04:54:15;;;;;;;6.93;5.87;;;;;;;18.37;73.33;97514.89;126903;1095;62761;-53
2021/08/10 04:56:43;;;;;;;6.60;5.87;;;;;;;18.47;72.96;97520.89;126922;1095;62758;-60
2021/08/10 04:59:10;;;;;;;5.73;5.13;;;;;;;18.55;73.03;97518.28;127028;1094;62591;-49
2021/08/10 05:01:39;;;;;;;6.03;5.43;;;;;;;18.63;72.53;97516.67;126982;1095;62643;-50
2021/08/10 05:04:06;;;;;;;5.60;5.10;;;;;;;18.71;72.45;97520.19;127014;1094;62604;-59
2021/08/10 05:06:36;;;;;;;6.17;5.57;;;;;;;18.81;72.44;97528.00;127150;1095;62741;-55
2021/08/10 05:09:06;;;;;;;7.23;6.27;;;;;;;18.89;71.95;97520.09;127024;1095;62553;-55
2021/08/10 05:11:33;;;;;;;;;;;;;;;18.98;72.04;97523.59;126968;1094;62592;-55
2021/08/10 05:14:00;;;;;;;6.37;5.33;;;;;;;19.05;71.62;97528.09;126968;1095;62607;-49
2021/08/10 05:16:27;;;;;;;7.07;4.87;;;;;;;19.12;71.36;97527.43;127016;1095;62636;-57
2021/08/10 05:18:54;;;;;;;5.70;5.10;;;;;;;19.17;71.50;97523.30;126938;1095;62876;-59
2021/08/10 05:21:21;;;;;;;5.80;5.20;;;;;;;19.25;71.33;97522.49;127034;1095;62694;-54
2021/08/10 05:23:48;;;;;;;6.07;5.47;;;;;;;19.31;71.09;97519.18;127027;1095;62623;-53
2021/08/10 05:26:15;;;;;;;6.70;5.33;;;;;;;19.40;71.00;97522.67;127053;1095;62617;-57
2021/08/10 05:28:42;;;;;;;5.80;5.13;;;;;;;19.48;70.71;97526.16;127009;1093;62552;-60
2021/08/10 05:31:09;;;;;;;5.33;4.83;;;;;;;19.57;70.84;97525.17;127063;1095;62632;-59
2021/08/10 05:33:36;;;;;;;5.63;5.13;;;;;;;19.65;70.49;97521.73;126906;1095;62763;-52
2021/08/10 05:36:03;;;;;;;5.13;4.63;;;;;;;19.71;70.38;97526.37;126944;1093;62623;-53
2021/08/10 05:38:31;;;;;;;5.80;5.30;;;;;;;19.77;70.05;97519.56;127027;1095;62690;-53
2021/08/10 05:40:58;;;;;;;5.97;5.43;;;;;;;19.84;70.09;97516.09;127125;1095;62608;-46
2021/08/10 05:43:25;;;;;;;8.73;7.27;;;;;;;19.93;69.97;97519.56;127097;1095;62680;-61
2021/08/10 05:45:52;;;;;;;5.70;5.10;;;;;;;20.03;69.76;97514.08;127038;1095;62747;-59
2021/08/10 05:48:19;;;;;;;5.50;4.90;;;;;;;20.13;69.67;97512.06;127047;1095;62620;-57
2021/08/10 05:50:46;;;;;;;5.30;4.80;;;;;;;20.23;69.24;97510.04;127097;1095;63086;-60
2021/08/10 05:53:13;;;;;;;6.40;5.80;;;;;;;20.33;69.39;97512.50;127065;1095;62580;-53
2021/08/10 05:55:40;;;;;;;5.80;5.30;;;;;;;20.42;69.02;97519.44;127050;1095;62696;-59
2021/08/10 05:58:07;;;;;;;5.60;5.00;;;;;;;20.52;68.99;97519.27;127095;1095;62603;-48
2021/08/10 06:00:34;;;;;;;6.00;5.40;;;;;;;20.62;68.62;97519.09;127029;1095;62620;-48
2021/08/10 06:03:00;;;;;;;5.07;4.57;;;;;;;20.70;68.57;97519.05;126992;1095;62977;-49
2021/08/10 06:05:27;;;;;;;5.53;4.60;;;;;;;20.78;68.43;97519.02;127114;1095;62607;-60
2021/08/10 06:07:54;;;;;;;4.90;4.37;;;;;;;20.87;68.03;97517.15;127081;1095;62633;-49
2021/08/10 06:10:21;;;;;;;5.10;4.53;;;;;;;20.95;67.80;97514.45;127042;1095;62616;-59
2021/08/10 06:12:48;;;;;;;5.60;5.10;;;;;;;21.02;67.78;97516.22;126960;1095;62569;-60
2021/08/10 06:15:15;;;;;;;5.73;4.37;;;;;;;21.11;67.77;97519.66;126903;1094;62556;-59
2021/08/10 06:17:42;;;;;;;5.53;5.03;;;;;;;21.20;67.53;97517.79;127078;1093;63070;-61
2021/08/10 06:20:10;;;;;;;5.10;4.60;;;;;;;21.27;67.17;97516.09;127022;1093;62613;-50
2021/08/10 06:22:37;;;;;;;5.20;4.57;;;;;;;21.35;67.16;97522.22;127033;1095;62736;-54
2021/08/10 06:25:04;;;;;;;8.30;5.23;;;;;;;21.43;66.93;97520.48;126845;1095;62623;-53
2021/08/10 06:27:31;;;;;;;5.10;4.40;;;;;;;21.51;66.88;97517.78;126950;1095;62629;-50
2021/08/10 06:29:58;;;;;;;5.80;5.20;;;;;;;21.59;66.85;97521.20;126899;1093;62588;-51
2021/08/10 06:32:25;;;;;;;5.10;4.60;;;;;;;21.69;66.44;97528.12;126913;1095;62748;-55
2021/08/10 06:34:52;;;;;;;6.80;5.07;;;;;;;21.78;66.41;97525.20;127023;1095;62828;-49
2021/08/10 06:37:19;;;;;;;5.10;4.50;;;;;;;21.89;66.38;97528.44;126888;1095;62617;-51
2021/08/10 06:39:46;;;;;;;5.37;4.87;;;;;;;21.99;66.30;97529.83;126934;1095;62552;-59
2021/08/10 06:42:13;;;;;;;5.20;4.70;;;;;;;22.07;66.10;97526.27;126904;1095;62671;-53
2021/08/10 06:44:40;;;;;;;5.60;4.70;;;;;;;22.17;65.96;97532.19;126943;1093;62680;-52
2021/08/10 06:47:07;;;;;;;4.77;4.30;;;;;;;22.27;65.63;97530.08;126954;1095;62783;-51
2021/08/10 06:49:34;;;;;;;4.87;4.07;;;;;;;22.38;65.45;97528.83;127170;1094;62584;-60
2021/08/10 06:52:01;;;;;;;4.60;4.20;;;;;;;22.47;65.13;97522.39;126962;1093;62694;-56
2021/08/10 06:54:28;;;;;;;5.17;4.67;;;;;;;22.56;65.26;97520.47;126940;1093;62605;-59
2021/08/10 06:56:55;;;;;;;5.20;4.70;;;;;;;22.67;64.77;97519.17;126935;1093;62855;-50
2021/08/10 06:59:22;;;;;;;4.50;4.10;;;;;;;22.76;64.93;97526.05;126968;1095;62608;-50
2021/08/10 07:01:48;;;;;;;4.97;4.40;;;;;;;22.88;64.59;97535.23;126890;1095;62603;-51
2021/08/10 07:04:15;;;;;;;4.73;4.33;;;;;;;22.95;64.52;97522.83;126912;1093;62671;-57
2021/08/10 07:06:42;;;;;;;4.80;4.40;;;;;;;23.05;64.38;97519.86;126976;1093;62617;-59
2021/08/10 07:09:09;;;;;;;5.27;4.30;;;;;;;23.15;64.21;97523.05;126869;1095;62605;-59
2021/08/10 07:11:41;;;;;;;6.47;4.50;;;;;;;23.26;63.87;97522.57;126940;1095;62696;-59
2021/08/10 07:14:11;;;;;;;5.57;4.30;;;;;;;23.39;63.86;97521.89;126902;1094;63060;-60
2021/08/10 07:16:42;;;;;;;4.73;4.30;;;;;;;23.50;63.71;97520.55;127015;1095;62653;-60
2021/08/10 07:19:09;;;;;;;5.87;4.37;;;;;;;23.63;63.50;97518.83;126878;1095;62587;-47
2021/08/10 07:21:36;;;;;;;5.30;4.80;;;;;;;23.75;63.14;97521.83;127117;1095;62589;-50
2021/08/10 07:24:04;;;;;;;5.00;4.30;;;;;;;23.86;63.18;97515.98;127182;1095;62710;-52
2021/08/10 07:26:32;;;;;;;5.20;4.70;;;;;;;23.99;63.03;97511.75;127016;1093;62600;-57
2021/08/10 07:28:59;;;;;;;5.30;4.80;;;;;;;24.11;62.87;97510.20;127010;1095;62585;-60
2021/08/10 07:31:26;;;;;;;5.17;4.67;;;;;;;24.22;62.60;97516.84;126924;1095;62620;-50
2021/08/10 07:33:53;;;;;;;4.87;4.47;;;;;;;24.33;62.23;97511.80;126937;1095;62666;-52
2021/08/10 07:36:20;;;;;;;5.60;5.00;;;;;;;24.44;62.14;97515.78;126939;1094;62601;-48
2021/08/10 07:38:47;;;;;;;5.80;5.10;;;;;;;24.55;62.14;97511.75;126967;1095;62589;-49
2021/08/10 07:41:14;;;;;;;5.33;4.60;;;;;;;24.67;61.43;97510.15;126928;1095;62637;-54
2021/08/10 07:43:41;;;;;;;4.60;4.20;;;;;;;24.75;61.35;97509.98;127114;1095;62604;-55
2021/08/10 07:46:08;;;;;;;4.83;4.03;;;;;;;24.86;61.14;97504.05;127051;1095;62575;-58
2021/08/10 07:48:35;;;;;;;4.57;4.17;;;;;;;24.96;60.37;97501.03;127143;1095;62611;-60
2021/08/10 07:51:02;;;;;;;4.67;4.27;;;;;;;25.05;60.40;97504.33;127058;1095;62605;-57
2021/08/10 07:53:29;;;;;;;5.13;4.10;;;;;;;25.16;60.11;97502.97;127019;1095;62633;-55
2021/08/10 07:55:56;;;;;;;4.40;4.00;;;;;;;25.25;59.74;97502.59;127019;1093;62604;-58
2021/08/10 07:58:23;;;;;;;4.70;4.20;;;;;;;25.33;59.64;97499.73;126909;1095;62588;-57
2021/08/10 08:00:50;;;;;;;4.67;4.10;;;;;;;25.44;59.24;97492.13;127040;1095;62599;-61
2021/08/10 08:03:17;;;;;;;4.67;4.27;;;;;;;25.51;59.26;97491.08;127109;1093;62614;-56
2021/08/10 08:05:44;;;;;;;4.80;4.30;;;;;;;25.58;58.55;97488.43;127062;1095;62604;-55
2021/08/10 08:08:11;;;;;;;4.40;3.97;;;;;;;25.64;58.81;97487.59;126955;1093;62565;-55
2021/08/10 08:10:38;;;;;;;5.50;4.80;;;;;;;25.72;58.49;97482.05;127040;1095;62639;-52
2021/08/10 08:13:05;;;;;;;5.10;4.60;;;;;;;25.80;58.25;97481.88;127016;1095;62723;-57
2021/08/10 08:15:34;;;;;;;5.50;5.00;;;;;;;25.89;58.10;97480.64;126909;1095;62555;-56
2021/08/10 08:18:01;;;;;;;;;;;;;;;25.98;57.58;97480.44;126904;1093;62601;-59
2021/08/10 08:20:28;;;;;;;4.97;4.47;;;;;;;26.08;57.53;97480.83;126878;1095;62607;-57
2021/08/10 08:22:55;;;;;;;5.93;4.53;;;;;;;26.18;57.50;97475.86;126934;1094;62549;-59
2021/08/10 08:25:22;;;;;;;5.17;4.67;;;;;;;26.29;57.13;97483.25;126911;1093;62971;-57
2021/08/10 08:27:49;;;;;;;5.47;4.97;;;;;;;26.39;56.75;97478.30;126875;1093;62588;-53
2021/08/10 08:30:16;;;;;;;5.43;4.30;;;;;;;26.52;56.60;97479.31;126981;1093;62671;-50
2021/08/10 08:32:43;;;;;;;5.00;4.50;;;;;;;26.63;56.00;97478.67;127143;1095;62596;-52
2021/08/10 08:35:10;;;;;;;5.65;5.15;;;;;;;26.68;55.61;97475.35;126957;1093;62605;-57
2021/08/10 08:37:37;;;;;;;5.20;4.70;;;;;;;26.70;55.18;97481.31;127060;1095;62748;-56
2021/08/10 08:40:05;;;;;;;4.63;4.13;;;;;;;26.76;55.19;97473.26;127011;1093;62609;-60
2021/08/10 08:42:32;;;;;;;4.70;4.20;;;;;;;26.85;54.99;97479.17;126980;1093;62603;-56
2021/08/10 08:44:59;;;;;;;4.63;3.73;;;;;;;26.96;54.70;97480.39;127035;1095;62600;-60
2021/08/10 08:47:26;;;;;;;4.33;3.63;;;;;;;27.06;53.83;97483.42;126999;1095;62856;-59
2021/08/10 08:49:56;;;;;;;4.50;3.60;;;;;;;27.16;53.51;97483.80;126981;1095;62595;-58
2021/08/10 08:52:23;;;;;;;4.80;4.23;;;;;;;27.24;53.35;97474.69;126948;1093;62672;-58
2021/08/10 08:54:50;;;;;;;4.70;4.20;;;;;;;27.33;52.79;97481.44;126751;1095;62591;-55
2021/08/10 08:57:17;;;;;;;4.10;3.70;;;;;;;27.34;52.53;97475.84;127111;1093;62589;-57
2021/08/10 08:59:44;;;;;;;3.97;3.60;;;;;;;27.39;52.14;97470.65;127021;1095;62609;-56
2021/08/10 09:02:17;;;;;;;4.57;4.17;;;;;;;27.48;51.87;97470.39;127067;1095;62601;-59
2021/08/10 09:04:45;;;;;;;4.97;3.47;;;;;;;27.57;51.35;97464.53;127032;1095;62653;-58
2021/08/10 09:07:12;;;;;;;4.40;4.00;;;;;;;27.63;51.12;97473.58;127128;1095;62569;-59
2021/08/10 09:09:39;;;;;;;5.27;4.70;;;;;;;27.65;50.92;97464.27;126990;1095;62578;-59
2021/08/10 09:12:11;;;;;;;4.10;3.70;;;;;;;27.70;50.40;97458.25;126932;1095;62633;-59
2021/08/10 09:14:50;;;;;;;4.07;3.67;;;;;;;27.74;50.37;97459.48;126863;1095;62760;-59
2021/08/10 09:17:21;;;;;;;4.10;3.70;;;;;;;27.77;50.10;97459.03;126950;1093;62616;-57
2021/08/10 09:19:54;;;;;;;4.17;3.77;;;;;;;27.82;49.56;97456.50;126936;1095;62604;-57
2021/08/10 09:22:23;;;;;;;3.77;3.37;;;;;;;27.87;49.27;97458.53;126925;1095;62623;-60
2021/08/10 09:24:57;;;;;;;165.77;147.47;;;;;;;27.91;49.13;97457.05;126949;1095;62582;-58
2021/08/10 09:27:38;;;;;;;151.15;133.35;;;;;;;27.97;48.90;97453.50;126960;1095;62706;-59
2021/08/10 09:30:14;;;;;;;140.27;120.90;;;;;;;28.08;48.57;97457.31;126924;1094;64115;-58
2021/08/10 09:32:53;;;;;;;101.37;89.23;;;;;;;28.15;48.10;97458.08;126902;1095;62597;-59
2021/08/10 09:35:21;;;;;;;73.33;61.60;;;;;;;28.23;47.88;97463.14;127011;1093;62604;-59
2021/08/10 09:38:20;;;;;;;65.77;54.93;;;;;;;28.30;47.33;97457.72;126916;1093;62572;-59
2021/08/10 09:40:48;;;;;;;44.03;39.27;;;;;;;28.38;47.34;97455.59;126951;1095;62770;-58
2021/08/10 09:43:18;;;;;;;37.27;31.80;;;;;;;28.48;46.80;97463.13;127132;1093;62620;-58
2021/08/10 09:45:45;;;;;;;20.03;16.40;;;;;;;28.56;46.11;97461.98;127016;1095;62572;-59
2021/08/10 09:48:13;;;;;;;17.30;13.63;;;;;;;28.63;45.47;97460.05;127057;1095;62587;-59
2021/08/10 09:50:41;;;;;;;11.73;9.97;;;;;;;28.70;44.55;97460.78;127119;1093;62600;-57
2021/08/10 09:53:15;;;;;;;8.53;6.67;;;;;;;28.77;44.04;97466.91;127057;1095;62752;-59
2021/08/10 09:55:55;;;;;;;6.03;5.30;;;;;;;28.88;43.96;97463.44;126911;1095;62657;-58
2021/08/10 09:58:22;;;;;;;5.10;4.20;;;;;;;28.98;43.75;97456.73;126982;1095;62564;-59
2021/08/10 10:00:50;;;;;;;4.75;3.60;;;;;;;29.03;43.61;97456.89;127088;1093;62668;-58
2021/08/10 10:03:19;;;;;;;5.00;3.40;;;;;;;29.07;43.45;97466.13;127037;1095;62604;-57
2021/08/10 10:05:46;;;;;;;;;;;;;;;29.15;42.17;97463.13;127024;1095;62622;-58
2021/08/10 10:08:15;;;;;;;3.40;2.70;;;;;;;29.25;43.33;97465.26;126942;1095;62665;-59
2021/08/10 10:10:42;;;;;;;2.93;2.63;;;;;;;29.33;43.22;97457.68;127031;1095;62556;-59
2021/08/10 10:13:15;;;;;;;3.13;2.23;;;;;;;29.36;42.64;97459.92;126997;1093;62699;-59
2021/08/10 10:15:42;;;;;;;3.77;2.50;;;;;;;29.36;42.74;97448.34;127068;1095;62577;-57
2021/08/10 10:18:10;;;;;;;3.30;2.63;;;;;;;29.34;42.95;97456.63;126985;1095;62709;-58
2021/08/10 10:20:42;;;;;;;3.35;2.45;;;;;;;29.37;42.52;97463.44;126958;1093;62587;-58
2021/08/10 10:23:12;;;;;;;3.40;2.30;;;;;;;29.45;42.02;97460.42;127114;1095;62611;-56
2021/08/10 10:25:39;;;;;;;2.10;1.90;;;;;;;29.55;41.87;97454.50;127097;1095;62594;-60
2021/08/10 10:28:06;;;;;;;3.03;2.40;;;;;;;29.66;41.55;97456.38;127015;1095;62603;-59
2021/08/10 10:30:33;;;;;;;2.63;2.23;;;;;;;29.76;41.42;97456.61;126836;1095;62764;-60
2021/08/10 10:33:00;;;;;;;2.87;2.23;;;;;;;29.84;41.29;97450.89;126901;1095;62655;-58
2021/08/10 10:35:27;;;;;;;2.70;2.50;;;;;;;29.91;41.22;97456.18;126847;1095;62664;-57
2021/08/10 10:37:54;;;;;;;2.50;2.17;;;;;;;29.98;40.71;97446.09;126561;1093;62611;-58
2021/08/10 10:40:21;;;;;;;2.80;2.47;;;;;;;30.04;40.73;97447.02;126848;1095;62631;-59
2021/08/10 10:42:54;;;;;;;2.80;2.57;;;;;;;30.11;40.94;97453.13;127014;1095;62596;-59
2021/08/10 10:45:34;;;;;;;3.07;2.17;;;;;;;30.20;40.78;97449.05;126957;1095;62559;-58
2021/08/10 10:48:01;;;;;;;3.45;2.40;;;;;;;30.28;40.83;97459.48;127082;1095;62661;-59
2021/08/10 10:50:28;;;;;;;4.17;2.47;;;;;;;30.39;40.48;97453.23;127128;1094;62620;-53
2021/08/10 10:53:06;;;;;;;3.20;2.40;;;;;;;30.59;39.85;97454.72;127000;1093;62668;-56
2021/08/10 10:55:41;;;;;;;2.77;2.33;;;;;;;30.77;39.36;97459.97;127062;1095;62597;-53
2021/08/10 10:58:28;;;;;;;2.90;2.50;;;;;;;30.89;39.39;97452.67;127066;1095;62662;-55
2021/08/10 11:01:17;;;;;;;3.45;2.65;;;;;;;31.00;39.30;97455.55;126998;1094;62593;-58
2021/08/10 11:04:03;;;;;;;2.80;2.20;;;;;;;31.14;39.15;97462.30;126925;1093;62578;-59
2021/08/10 11:06:30;;;;;;;2.60;2.10;;;;;;;31.17;38.80;97451.03;126933;1095;62572;-58
2021/08/10 11:09:01;;;;;;;3.30;2.40;;;;;;;31.20;38.69;97453.25;126922;1093;62742;-58
2021/08/10 11:11:48;;;;;;;2.80;2.20;;;;;;;31.30;38.59;97445.36;126934;1095;62977;-58
2021/08/10 11:14:36;;;;;;;2.90;2.20;;;;;;;31.42;38.33;97443.39;127053;1094;62597;-53
2021/08/10 11:17:12;;;;;;;2.90;2.60;;;;;;;31.42;37.78;97446.09;127194;1095;62588;-59
2021/08/10 11:19:40;;;;;;;2.57;2.10;;;;;;;31.34;37.42;97449.22;127025;1095;62612;-55
2021/08/10 11:22:26;;;;;;;2.73;2.03;;;;;;;31.28;37.32;97452.05;126969;1095;62604;-58
2021/08/10 11:25:00;;;;;;;2.60;1.85;;;;;;;31.24;37.16;97448.16;127113;1094;62650;-57
2021/08/10 11:27:38;;;;;;;2.40;1.65;;;;;;;31.23;37.01;97449.23;127011;1095;62875;-56
2021/08/10 11:30:10;;;;;;;2.57;1.87;;;;;;;31.24;36.94;97446.28;127167;1094;62604;-52
2021/08/10 11:32:44;;;;;;;2.40;1.87;;;;;;;31.30;37.02;97444.55;127103;1095;62621;-55